Time;durP1;ratioP1;P1;durP2;ratioP2;P2;SDS_P1;SDS_P2;PMS_P1;PMS_P2;Temp;Humidity;BMP_temperature;BMP_pressure;BME280_temperature;BME280_humidity;BME280_pressure;Samples;Min_cycle;Max_cycle;Signal;HPM_P1;HPM_P2
2024/01/28 00:00:17;;;;;;;17.92;5.60;;;;;;;;;;5073450;28;20086;-77
2024/01/28 00:02:43;;;;;;;17.83;6.43;;;;;;;;;;5071326;28;20036;-77
2024/01/28 00:05:10;;;;;;;15.37;5.67;;;;;;;;;;5071279;28;20532;-77
2024/01/28 00:07:35;;;;;;;16.87;6.00;;;;;;;;;;5071053;28;20041;-77
2024/01/28 00:10:01;;;;;;;15.73;5.60;;;;;;;;;;5075817;28;20503;-77
2024/01/28 00:12:26;;;;;;;15.87;5.50;;;;;;;;;;5071758;28;20032;-77
2024/01/28 00:14:51;;;;;;;14.64;5.26;;;;;;;;;;5069996;28;20083;-77
2024/01/28 00:17:16;;;;;;;12.37;5.27;;;;;;;;;;5069963;28;20074;-77
2024/01/28 00:19:41;;;;;;;18.37;5.63;;;;;;;;;;5069303;28;20036;-77
2024/01/28 00:22:06;;;;;;;9.47;4.63;;;;;;;;;;5071632;28;20029;-77
2024/01/28 00:24:32;;;;;;;13.10;4.83;;;;;;;;;;5070790;28;20020;-77
2024/01/28 00:26:57;;;;;;;16.03;4.90;;;;;;;;;;5070659;28;20515;-77
2024/01/28 00:29:28;;;;;;;18.40;5.70;;;;;;;;;;5078145;28;20054;-77
2024/01/28 00:31:54;;;;;;;12.00;5.70;;;;;;;;;;5071003;28;20032;-77
2024/01/28 00:34:19;;;;;;;15.30;6.07;;;;;;;;;;5071195;28;20043;-77
2024/01/28 00:36:44;;;;;;;15.87;5.57;;;;;;;;;;5078963;28;20044;-77
2024/01/28 00:39:13;;;;;;;13.70;5.00;;;;;;;;;;5070407;28;20051;-77
2024/01/28 00:41:38;;;;;;;16.67;5.53;;;;;;;;;;5070809;28;20029;-77
2024/01/28 00:44:04;;;;;;;17.80;6.87;;;;;;;;;;5070466;28;20032;-77
2024/01/28 00:46:29;;;;;;;16.63;5.07;;;;;;;;;;5070692;28;20059;-77
2024/01/28 00:48:54;;;;;;;13.40;4.97;;;;;;;;;;5070241;28;20527;-77
2024/01/28 00:51:19;;;;;;;14.03;5.90;;;;;;;;;;5076867;28;20028;-77
2024/01/28 00:53:44;;;;;;;20.50;6.13;;;;;;;;;;5071110;28;20040;-77
2024/01/28 00:56:10;;;;;;;12.43;5.27;;;;;;;;;;5060613;28;20032;-77
2024/01/28 00:58:35;;;;;;;20.13;6.23;;;;;;;;;;5070449;28;20040;-77
2024/01/28 01:01:00;;;;;;;14.60;5.07;;;;;;;;;;5069950;28;20028;-77
2024/01/28 01:03:25;;;;;;;13.27;5.67;;;;;;;;;;5079520;28;20381;-77
2024/01/28 01:05:50;;;;;;;15.20;6.30;;;;;;;;;;5070277;28;20032;-77
2024/01/28 01:08:16;;;;;;;16.37;6.13;;;;;;;;;;5070513;28;20112;-77
2024/01/28 01:10:41;;;;;;;16.97;5.70;;;;;;;;;;5069683;28;20108;-77
2024/01/28 01:13:06;;;;;;;14.90;6.13;;;;;;;;;;5076717;28;20032;-77
2024/01/28 01:15:32;;;;;;;16.43;6.20;;;;;;;;;;5070575;28;20028;-77
2024/01/28 01:17:57;;;;;;;22.87;7.10;;;;;;;;;;5070140;28;20544;-77
2024/01/28 01:20:22;;;;;;;14.40;6.00;;;;;;;;;;5069608;28;20020;-77
2024/01/28 01:22:48;;;;;;;15.40;5.77;;;;;;;;;;5075696;28;20033;-77
2024/01/28 01:25:13;;;;;;;14.47;5.77;;;;;;;;;;5072733;28;20031;-77
2024/01/28 01:27:38;;;;;;;12.50;5.10;;;;;;;;;;5069808;28;20036;-77
2024/01/28 01:30:04;;;;;;;17.43;5.90;;;;;;;;;;5072582;28;20064;-77
2024/01/28 01:32:29;;;;;;;16.63;6.27;;;;;;;;;;5077277;28;20035;-77
2024/01/28 01:34:54;;;;;;;9.30;4.97;;;;;;;;;;5069749;28;20050;-77
2024/01/28 01:37:19;;;;;;;14.33;5.30;;;;;;;;;;5070087;28;20039;-77
2024/01/28 01:39:44;;;;;;;14.60;6.00;;;;;;;;;;5069435;28;20774;-77
2024/01/28 01:42:10;;;;;;;16.30;5.80;;;;;;;;;;5074071;28;20035;-77
2024/01/28 01:44:35;;;;;;;14.83;5.37;;;;;;;;;;5072093;28;20037;-77
2024/01/28 01:47:00;;;;;;;18.30;6.47;;;;;;;;;;5069937;28;20436;-77
2024/01/28 01:49:26;;;;;;;15.83;5.20;;;;;;;;;;5069435;28;20111;-77
2024/01/28 01:51:51;;;;;;;13.57;5.13;;;;;;;;;;5071239;28;20028;-77
2024/01/28 01:54:16;;;;;;;15.40;6.57;;;;;;;;;;5072913;28;20103;-77
2024/01/28 01:56:41;;;;;;;20.07;6.13;;;;;;;;;;5069846;28;20060;-77
2024/01/28 01:59:07;;;;;;;12.73;5.23;;;;;;;;;;5069643;28;20025;-77
2024/01/28 02:01:32;;;;;;;22.73;6.43;;;;;;;;;;5069542;28;20020;-77
2024/01/28 02:03:58;;;;;;;18.70;6.03;;;;;;;;;;5075904;28;20032;-77
2024/01/28 02:06:24;;;;;;;12.90;5.37;;;;;;;;;;5069785;28;20037;-77
2024/01/28 02:08:49;;;;;;;12.03;5.17;;;;;;;;;;5072026;28;20057;-77
2024/01/28 02:11:15;;;;;;;12.33;5.57;;;;;;;;;;5069585;28;20044;-77
2024/01/28 02:13:40;;;;;;;18.97;6.70;;;;;;;;;;5075222;28;20071;-77
2024/01/28 02:16:06;;;;;;;19.73;6.30;;;;;;;;;;5069790;28;20036;-77
2024/01/28 02:18:31;;;;;;;17.17;6.13;;;;;;;;;;5069707;28;20077;-77
2024/01/28 02:20:56;;;;;;;11.20;5.17;;;;;;;;;;5067820;28;20060;-77
2024/01/28 02:23:22;;;;;;;17.67;6.13;;;;;;;;;;5076561;28;20028;-77
2024/01/28 02:25:47;;;;;;;18.67;6.43;;;;;;;;;;5073922;28;20035;-77
2024/01/28 02:28:12;;;;;;;17.10;5.30;;;;;;;;;;5075959;28;20040;-77
2024/01/28 02:30:38;;;;;;;15.63;5.87;;;;;;;;;;5068879;28;20029;-77
2024/01/28 02:33:03;;;;;;;12.27;5.67;;;;;;;;;;5076037;28;20550;-77
2024/01/28 02:35:28;;;;;;;12.23;5.07;;;;;;;;;;5069532;28;20028;-77
2024/01/28 02:37:53;;;;;;;15.33;4.80;;;;;;;;;;5071427;28;20041;-77
2024/01/28 02:40:19;;;;;;;12.83;5.27;;;;;;;;;;5072634;28;20020;-77
2024/01/28 02:42:44;;;;;;;12.07;4.80;;;;;;;;;;5081284;28;20020;-77
2024/01/28 02:45:09;;;;;;;15.07;6.00;;;;;;;;;;5072915;28;20492;-77
2024/01/28 02:47:35;;;;;;;16.90;6.20;;;;;;;;;;5073291;28;20044;-77
2024/01/28 02:50:00;;;;;;;15.53;6.17;;;;;;;;;;5076799;28;20029;-77
2024/01/28 02:52:25;;;;;;;16.60;6.40;;;;;;;;;;5078176;28;20067;-77
2024/01/28 02:54:50;;;;;;;16.33;5.17;;;;;;;;;;5074001;28;20039;-77
2024/01/28 02:57:15;;;;;;;11.27;5.30;;;;;;;;;;5072692;28;20155;-77
2024/01/28 02:59:41;;;;;;;14.07;5.77;;;;;;;;;;5072162;28;20032;-77
2024/01/28 03:02:06;;;;;;;16.67;6.20;;;;;;;;;;5079522;28;20028;-77
2024/01/28 03:04:35;;;;;;;15.57;6.07;;;;;;;;;;5076901;28;20060;-77
2024/01/28 03:07:00;;;;;;;14.53;5.77;;;;;;;;;;5072563;28;20516;-77
2024/01/28 03:09:26;;;;;;;15.13;6.20;;;;;;;;;;5072277;28;20025;-77
2024/01/28 03:11:51;;;;;;;20.30;7.37;;;;;;;;;;5071185;28;20121;-77
2024/01/28 03:14:16;;;;;;;15.63;6.23;;;;;;;;;;5076670;28;20035;-77
2024/01/28 03:16:41;;;;;;;16.40;5.97;;;;;;;;;;5072352;28;20052;-77
2024/01/28 03:19:07;;;;;;;18.53;6.90;;;;;;;;;;5072159;28;20069;-77
2024/01/28 03:21:32;;;;;;;14.77;5.37;;;;;;;;;;5075811;28;20028;-77
2024/01/28 03:23:57;;;;;;;13.27;5.63;;;;;;;;;;5076022;28;20035;-77
2024/01/28 03:26:22;;;;;;;14.97;5.97;;;;;;;;;;5075702;28;20162;-77
2024/01/28 03:28:49;;;;;;;16.57;5.70;;;;;;;;;;5072236;28;20056;-77
2024/01/28 03:31:14;;;;;;;13.47;4.90;;;;;;;;;;5071931;28;20265;-77
2024/01/28 03:33:39;;;;;;;15.47;5.30;;;;;;;;;;5079067;28;20020;-76
2024/01/28 03:36:05;;;;;;;12.90;5.97;;;;;;;;;;5072193;28;20606;-77
2024/01/28 03:38:30;;;;;;;10.17;5.00;;;;;;;;;;5072141;28;20029;-77
2024/01/28 03:40:55;;;;;;;14.83;5.47;;;;;;;;;;5071429;28;20040;-77
2024/01/28 03:43:20;;;;;;;16.10;5.87;;;;;;;;;;5077818;28;20397;-77
2024/01/28 03:45:45;;;;;;;18.27;5.33;;;;;;;;;;5071765;28;20037;-77
2024/01/28 03:48:11;;;;;;;11.87;5.13;;;;;;;;;;5072058;28;20077;-77
2024/01/28 03:50:36;;;;;;;13.27;4.93;;;;;;;;;;5071344;28;20028;-77
2024/01/28 03:53:01;;;;;;;14.57;5.27;;;;;;;;;;5076167;28;20008;-77
2024/01/28 03:55:26;;;;;;;12.80;5.10;;;;;;;;;;5071747;28;20032;-78
2024/01/28 03:57:51;;;;;;;13.60;5.23;;;;;;;;;;5070180;28;20067;-77
2024/01/28 04:00:18;;;;;;;19.87;6.73;;;;;;;;;;5071008;28;20025;-77
2024/01/28 04:02:44;;;;;;;16.33;6.47;;;;;;;;;;5079044;28;20032;-77
2024/01/28 04:05:09;;;;;;;14.50;6.27;;;;;;;;;;5071219;28;20174;-77
2024/01/28 04:07:34;;;;;;;15.60;6.17;;;;;;;;;;5070300;28;20105;-77
2024/01/28 04:10:00;;;;;;;13.80;5.13;;;;;;;;;;5052733;28;20040;-77
2024/01/28 04:12:25;;;;;;;14.33;5.00;;;;;;;;;;5077005;28;20078;-77
2024/01/28 04:14:50;;;;;;;13.67;5.30;;;;;;;;;;5073062;28;20036;-77
2024/01/28 04:17:16;;;;;;;17.30;6.00;;;;;;;;;;5077073;28;20041;-77
2024/01/28 04:19:41;;;;;;;17.23;7.03;;;;;;;;;;5069215;28;20025;-77
2024/01/28 04:22:10;;;;;;;14.73;6.17;;;;;;;;;;5071289;28;20099;-77
2024/01/28 04:24:35;;;;;;;15.23;5.87;;;;;;;;;;5076312;28;20055;-77
2024/01/28 04:27:00;;;;;;;20.03;6.63;;;;;;;;;;5070499;28;20044;-77
2024/01/28 04:29:25;;;;;;;13.80;4.80;;;;;;;;;;5081038;28;20071;-77
2024/01/28 04:31:50;;;;;;;12.70;5.53;;;;;;;;;;5071986;28;20480;-77
2024/01/28 04:34:15;;;;;;;11.70;4.70;;;;;;;;;;5075244;28;20036;-77
2024/01/28 04:36:41;;;;;;;12.87;5.40;;;;;;;;;;5071155;28;20427;-77
2024/01/28 04:39:07;;;;;;;13.80;5.70;;;;;;;;;;5070432;28;20037;-77
2024/01/28 04:41:32;;;;;;;15.53;5.73;;;;;;;;;;5069411;28;20020;-77
2024/01/28 04:43:57;;;;;;;11.33;4.93;;;;;;;;;;5080723;28;20032;-77
2024/01/28 04:46:23;;;;;;;11.27;4.70;;;;;;;;;;5070659;28;20408;-77
2024/01/28 04:48:48;;;;;;;16.87;5.20;;;;;;;;;;5074294;28;20067;-77
2024/01/28 04:51:13;;;;;;;13.83;5.00;;;;;;;;;;5070412;28;20098;-77
2024/01/28 04:53:38;;;;;;;14.07;4.83;;;;;;;;;;5074488;28;20036;-77
2024/01/28 04:56:03;;;;;;;11.47;4.40;;;;;;;;;;5070592;28;20033;-77
2024/01/28 04:58:29;;;;;;;14.77;4.73;;;;;;;;;;5070243;28;20024;-77
2024/01/28 05:00:54;;;;;;;13.57;5.23;;;;;;;;;;5069375;28;20215;-77
2024/01/28 05:03:20;;;;;;;10.90;4.90;;;;;;;;;;5076812;28;20714;-77
2024/01/28 05:05:45;;;;;;;14.37;6.37;;;;;;;;;;5070229;28;20078;-77
2024/01/28 05:08:10;;;;;;;13.73;5.57;;;;;;;;;;5070447;28;20024;-77
2024/01/28 05:10:35;;;;;;;17.23;5.60;;;;;;;;;;5068793;28;20504;-77
2024/01/28 05:13:01;;;;;;;13.70;5.90;;;;;;;;;;5074310;28;20400;-77
2024/01/28 05:15:26;;;;;;;10.73;4.70;;;;;;;;;;5070406;28;20081;-77
2024/01/28 05:17:51;;;;;;;17.50;5.60;;;;;;;;;;5070156;28;20032;-77
2024/01/28 05:20:16;;;;;;;12.10;4.80;;;;;;;;;;5072149;28;20090;-77
2024/01/28 05:22:42;;;;;;;13.30;5.63;;;;;;;;;;5074960;28;20093;-77
2024/01/28 05:25:09;;;;;;;16.77;5.30;;;;;;;;;;5076660;28;20028;-77
2024/01/28 05:27:34;;;;;;;19.60;5.53;;;;;;;;;;5069807;28;20033;-77
2024/01/28 05:29:59;;;;;;;15.97;5.70;;;;;;;;;;5069581;28;20033;-77
2024/01/28 05:32:25;;;;;;;11.67;4.23;;;;;;;;;;5075111;28;20060;-77
2024/01/28 05:34:50;;;;;;;18.43;5.80;;;;;;;;;;5070794;28;20040;-77
2024/01/28 05:37:16;;;;;;;17.90;5.83;;;;;;;;;;5070338;28;20035;-77
2024/01/28 05:39:41;;;;;;;12.13;5.07;;;;;;;;;;5068479;28;20028;-77
2024/01/28 05:42:06;;;;;;;12.83;5.90;;;;;;;;;;5068718;28;20039;-77
2024/01/28 05:44:32;;;;;;;19.43;6.17;;;;;;;;;;5073110;28;20035;-77
2024/01/28 05:46:57;;;;;;;15.90;5.90;;;;;;;;;;5069837;28;20043;-77
2024/01/28 05:49:22;;;;;;;17.90;5.33;;;;;;;;;;5068216;28;20031;-77
2024/01/28 05:51:47;;;;;;;15.87;5.63;;;;;;;;;;5069853;28;20051;-77
2024/01/28 05:54:12;;;;;;;14.20;6.30;;;;;;;;;;5074234;28;20033;-77
2024/01/28 05:56:37;;;;;;;13.03;6.50;;;;;;;;;;5069861;28;20047;-77
2024/01/28 05:59:03;;;;;;;13.80;5.50;;;;;;;;;;5069280;28;20024;-77
2024/01/28 06:01:28;;;;;;;10.03;5.27;;;;;;;;;;5070415;28;20463;-77
2024/01/28 06:03:53;;;;;;;12.83;5.37;;;;;;;;;;5076120;28;20032;-77
2024/01/28 06:06:18;;;;;;;16.77;5.67;;;;;;;;;;5075790;28;20028;-77
2024/01/28 06:08:43;;;;;;;12.23;5.43;;;;;;;;;;5069779;28;20492;-77
2024/01/28 06:11:09;;;;;;;16.07;5.90;;;;;;;;;;5069374;28;20024;-77
2024/01/28 06:13:34;;;;;;;14.37;5.27;;;;;;;;;;5077126;28;20091;-77
2024/01/28 06:15:59;;;;;;;15.17;5.80;;;;;;;;;;5073423;28;20037;-77
2024/01/28 06:18:24;;;;;;;16.33;6.33;;;;;;;;;;5082439;28;20024;-77
2024/01/28 06:20:49;;;;;;;17.57;5.50;;;;;;;;;;5077408;28;20028;-77
2024/01/28 06:23:15;;;;;;;18.00;6.00;;;;;;;;;;5076509;28;20020;-77
2024/01/28 06:25:40;;;;;;;17.70;6.07;;;;;;;;;;5073232;28;20507;-77
2024/01/28 06:28:05;;;;;;;13.30;5.67;;;;;;;;;;5072980;28;20036;-77
2024/01/28 06:30:32;;;;;;;15.17;5.33;;;;;;;;;;5072947;28;20090;-77
2024/01/28 06:32:57;;;;;;;12.07;5.47;;;;;;;;;;5079786;28;20028;-77
2024/01/28 06:35:22;;;;;;;12.97;6.93;;;;;;;;;;5073461;28;20718;-77
2024/01/28 06:37:48;;;;;;;14.30;5.77;;;;;;;;;;5073195;28;20679;-77
2024/01/28 06:40:13;;;;;;;11.77;5.17;;;;;;;;;;5072841;28;20033;-77
2024/01/28 06:42:38;;;;;;;14.87;5.80;;;;;;;;;;5076111;28;20032;-77
2024/01/28 06:45:03;;;;;;;8.97;4.70;;;;;;;;;;5073414;28;20028;-77
2024/01/28 06:47:28;;;;;;;14.17;5.27;;;;;;;;;;5079171;28;20024;-77
2024/01/28 06:49:54;;;;;;;11.60;3.93;;;;;;;;;;5074588;28;20074;-77
2024/01/28 06:52:19;;;;;;;10.47;4.97;;;;;;;;;;5073243;28;20017;-77
2024/01/28 06:54:44;;;;;;;13.63;5.70;;;;;;;;;;5075767;28;20032;-77
2024/01/28 06:57:09;;;;;;;14.87;4.20;;;;;;;;;;5075184;28;20093;-77
2024/01/28 06:59:34;;;;;;;13.43;4.80;;;;;;;;;;5072299;28;20037;-77
2024/01/28 07:02:00;;;;;;;11.23;4.90;;;;;;;;;;5075374;28;20028;-76
2024/01/28 07:04:25;;;;;;;18.30;5.80;;;;;;;;;;5076679;28;20036;-77
2024/01/28 07:06:50;;;;;;;14.33;5.40;;;;;;;;;;5072486;28;20089;-77
2024/01/28 07:09:17;;;;;;;12.73;4.80;;;;;;;;;;5072270;28;20055;-77
2024/01/28 07:11:43;;;;;;;13.27;5.30;;;;;;;;;;5072429;28;20024;-77
2024/01/28 07:14:08;;;;;;;14.87;5.57;;;;;;;;;;5075459;28;20035;-77
2024/01/28 07:16:34;;;;;;;16.60;5.97;;;;;;;;;;5072611;28;20031;-77
2024/01/28 07:18:59;;;;;;;16.67;7.07;;;;;;;;;;5070756;28;20110;-77
2024/01/28 07:21:25;;;;;;;13.20;5.27;;;;;;;;;;5072337;28;20052;-77
2024/01/28 07:23:51;;;;;;;17.93;5.90;;;;;;;;;;5073051;28;20033;-77
2024/01/28 07:26:16;;;;;;;14.43;6.40;;;;;;;;;;5072181;28;20040;-77
2024/01/28 07:28:42;;;;;;;16.27;5.70;;;;;;;;;;5072149;28;20027;-77
2024/01/28 07:31:08;;;;;;;20.07;5.90;;;;;;;;;;5071672;28;20016;-77
2024/01/28 07:33:34;;;;;;;14.63;6.37;;;;;;;;;;5077942;28;20024;-77
2024/01/28 07:35:59;;;;;;;15.17;6.13;;;;;;;;;;5072094;28;20037;-77
2024/01/28 07:38:25;;;;;;;16.13;6.77;;;;;;;;;;5072123;28;20032;-77
2024/01/28 07:40:50;;;;;;;18.23;6.30;;;;;;;;;;5071356;28;20048;-77
2024/01/28 07:43:15;;;;;;;16.20;6.87;;;;;;;;;;5074823;28;20052;-77
2024/01/28 07:45:42;;;;;;;13.93;4.87;;;;;;;;;;5072037;28;20401;-77
2024/01/28 07:48:07;;;;;;;11.37;5.27;;;;;;;;;;5071805;28;20099;-77
2024/01/28 07:50:32;;;;;;;15.73;6.83;;;;;;;;;;5071385;28;20154;-77
2024/01/28 07:52:58;;;;;;;12.47;5.37;;;;;;;;;;5074572;28;20085;-77
2024/01/28 07:55:24;;;;;;;13.80;6.23;;;;;;;;;;5072284;28;20373;-77
2024/01/28 07:57:49;;;;;;;12.37;5.70;;;;;;;;;;5070220;28;20028;-77
2024/01/28 08:00:14;;;;;;;11.03;4.83;;;;;;;;;;5071128;28;20201;-77
2024/01/28 08:02:39;;;;;;;17.67;5.23;;;;;;;;;;5076705;28;20040;-77
2024/01/28 08:05:05;;;;;;;12.90;4.20;;;;;;;;;;5074118;28;20047;-77
2024/01/28 08:07:31;;;;;;;13.40;4.37;;;;;;;;;;5071371;28;20048;-77
2024/01/28 08:09:56;;;;;;;14.77;4.93;;;;;;;;;;5070847;28;20037;-77
2024/01/28 08:12:21;;;;;;;11.70;5.70;;;;;;;;;;5076447;28;20378;-77
2024/01/28 08:14:46;;;;;;;18.50;5.50;;;;;;;;;;5077076;28;20071;-77
2024/01/28 08:17:11;;;;;;;13.73;5.00;;;;;;;;;;5071382;28;20032;-77
2024/01/28 08:19:38;;;;;;;13.07;4.93;;;;;;;;;;5070855;28;20033;-77
2024/01/28 08:22:04;;;;;;;13.15;5.03;;;;;;;;;;5070971;28;20571;-77
2024/01/28 08:24:29;;;;;;;15.17;5.03;;;;;;;;;;5072216;28;20036;-77
2024/01/28 08:26:54;;;;;;;12.60;4.83;;;;;;;;;;5077818;28;20093;-77
2024/01/28 08:29:20;;;;;;;16.17;5.07;;;;;;;;;;5071319;28;20028;-77
2024/01/28 08:31:45;;;;;;;16.33;4.88;;;;;;;;;;5073816;28;20032;-77
2024/01/28 08:34:10;;;;;;;10.80;5.20;;;;;;;;;;5076534;28;20032;-77
2024/01/28 08:36:35;;;;;;;9.95;4.25;;;;;;;;;;5070768;28;20028;-77
2024/01/28 08:39:03;;;;;;;10.15;4.10;;;;;;;;;;5070413;28;20036;-78
2024/01/28 08:41:29;;;;;;;11.70;4.70;;;;;;;;;;5077572;28;20024;-77
2024/01/28 08:43:54;;;;;;;13.73;4.95;;;;;;;;;;5074135;28;20115;-77
2024/01/28 08:46:20;;;;;;;14.02;5.60;;;;;;;;;;5070814;28;20516;-77
2024/01/28 08:48:45;;;;;;;16.48;5.32;;;;;;;;;;5070584;28;20047;-77
2024/01/28 08:51:10;;;;;;;18.70;5.38;;;;;;;;;;5069851;28;20082;-77
2024/01/28 08:53:35;;;;;;;18.05;5.45;;;;;;;;;;5071213;28;20083;-77
2024/01/28 08:56:00;;;;;;;15.88;5.78;;;;;;;;;;5077078;28;20051;-77
2024/01/28 08:58:26;;;;;;;13.38;5.00;;;;;;;;;;5075740;28;20032;-77
2024/01/28 09:00:51;;;;;;;12.32;4.88;;;;;;;;;;5070048;28;20040;-77
2024/01/28 09:03:16;;;;;;;14.73;5.57;;;;;;;;;;5074832;28;20028;-77
2024/01/28 09:05:42;;;;;;;13.25;5.15;;;;;;;;;;5070683;28;20508;-77
2024/01/28 09:08:07;;;;;;;11.02;4.28;;;;;;;;;;5070635;28;20040;-77
2024/01/28 09:10:33;;;;;;;11.60;4.47;;;;;;;;;;5069948;28;20021;-77
2024/01/28 09:12:58;;;;;;;10.00;4.72;;;;;;;;;;5070842;28;20032;-77
2024/01/28 09:15:23;;;;;;;13.02;5.53;;;;;;;;;;5073388;28;20029;-77
2024/01/28 09:17:49;;;;;;;15.52;4.43;;;;;;;;;;5071452;28;20048;-77
2024/01/28 09:20:14;;;;;;;10.32;3.90;;;;;;;;;;5077085;28;20065;-77
2024/01/28 09:22:39;;;;;;;10.57;4.75;;;;;;;;;;5075222;28;20032;-78
2024/01/28 09:25:04;;;;;;;15.80;4.40;;;;;;;;;;5070861;28;20037;-77
2024/01/28 09:27:30;;;;;;;14.52;4.70;;;;;;;;;;5070275;28;20040;-76
2024/01/28 09:29:55;;;;;;;13.60;4.38;;;;;;;;;;5069739;28;20167;-77
2024/01/28 09:32:20;;;;;;;13.57;4.25;;;;;;;;;;5073434;28;20080;-77
2024/01/28 09:34:45;;;;;;;15.45;4.38;;;;;;;;;;5070572;28;20025;-78
2024/01/28 09:37:11;;;;;;;10.85;4.03;;;;;;;;;;5068927;28;20025;-78
2024/01/28 09:39:36;;;;;;;15.18;5.30;;;;;;;;;;5068435;28;20031;-77
2024/01/28 09:42:15;;;;;;;9.50;4.53;;;;;;;;;;5070274;28;20035;-78
2024/01/28 09:44:40;;;;;;;10.52;4.13;;;;;;;;;;5071378;28;20111;-77
2024/01/28 09:47:06;;;;;;;10.25;4.07;;;;;;;;;;5072919;28;20140;-78
2024/01/28 09:49:39;;;;;;;11.95;4.82;;;;;;;;;;5072952;28;20028;-77
2024/01/28 09:52:04;;;;;;;11.95;4.22;;;;;;;;;;5072925;28;20025;-77
2024/01/28 09:54:30;;;;;;;11.48;4.40;;;;;;;;;;5075385;28;20040;-77
2024/01/28 09:56:55;;;;;;;15.32;4.22;;;;;;;;;;5074160;28;20042;-77
2024/01/28 09:59:20;;;;;;;10.85;4.97;;;;;;;;;;5073747;28;20020;-77
2024/01/28 10:01:45;;;;;;;13.25;4.15;;;;;;;;;;5075731;28;20115;-78
2024/01/28 10:04:10;;;;;;;13.80;5.15;;;;;;;;;;5082099;28;20060;-78
2024/01/28 10:06:36;;;;;;;13.02;4.95;;;;;;;;;;5074075;28;20055;-77
2024/01/28 10:09:01;;;;;;;15.57;3.80;;;;;;;;;;5073340;28;20719;-77
2024/01/28 10:11:26;;;;;;;12.02;3.60;;;;;;;;;;5073932;28;20029;-78
2024/01/28 10:13:53;;;;;;;12.60;4.00;;;;;;;;;;5074370;28;20032;-78
2024/01/28 10:16:24;;;;;;;10.00;3.50;;;;;;;;;;5077672;28;20029;-77
2024/01/28 10:18:49;;;;;;;10.95;3.33;;;;;;;;;;5073860;28;20162;-77
2024/01/28 10:21:15;;;;;;;10.15;3.40;;;;;;;;;;5073318;28;20111;-78
2024/01/28 10:23:42;;;;;;;11.48;3.53;;;;;;;;;;5080665;28;20111;-78
2024/01/28 10:26:08;;;;;;;16.13;3.55;;;;;;;;;;5076076;28;20212;-78
2024/01/28 10:28:33;;;;;;;10.60;3.55;;;;;;;;;;5079029;28;20062;-77
2024/01/28 10:30:58;;;;;;;11.10;3.25;;;;;;;;;;5072217;28;20106;-78
2024/01/28 10:33:24;;;;;;;8.18;3.60;;;;;;;;;;5076293;28;20166;-78
2024/01/28 10:35:49;;;;;;;6.50;2.47;;;;;;;;;;5073798;28;20103;-78
2024/01/28 10:38:24;;;;;;;9.90;3.13;;;;;;;;;;5076489;28;20450;-78
2024/01/28 10:40:50;;;;;;;9.32;2.92;;;;;;;;;;5073082;28;20040;-77
2024/01/28 10:43:16;;;;;;;10.38;3.63;;;;;;;;;;5073994;28;20036;-78
2024/01/28 10:45:42;;;;;;;11.52;3.10;;;;;;;;;;5077142;28;20032;-77
2024/01/28 10:48:11;;;;;;;14.55;3.25;;;;;;;;;;5074040;28;20043;-78
2024/01/28 10:50:38;;;;;;;12.73;3.15;;;;;;;;;;5082652;28;20447;-78
2024/01/28 10:53:04;;;;;;;9.50;2.53;;;;;;;;;;5072398;28;20101;-77
2024/01/28 10:55:30;;;;;;;11.90;3.50;;;;;;;;;;5073592;28;20021;-78
2024/01/28 10:57:56;;;;;;;8.40;2.58;;;;;;;;;;5072763;28;20040;-78
2024/01/28 11:00:21;;;;;;;7.63;2.92;;;;;;;;;;5073166;28;20443;-78
2024/01/28 11:02:47;;;;;;;7.20;2.63;;;;;;;;;;5075619;28;20032;-78
2024/01/28 11:05:13;;;;;;;7.47;2.50;;;;;;;;;;5072909;28;20067;-78
2024/01/28 11:07:38;;;;;;;8.93;2.55;;;;;;;;;;5073203;28;20090;-78
2024/01/28 11:10:05;;;;;;;9.43;2.75;;;;;;;;;;5072684;28;20386;-78
2024/01/28 11:12:30;;;;;;;11.30;3.20;;;;;;;;;;5072877;28;20035;-77
2024/01/28 11:14:59;;;;;;;7.40;2.78;;;;;;;;;;5076325;28;20032;-78
2024/01/28 11:17:34;;;;;;;9.40;2.78;;;;;;;;;;5082967;28;20024;-77
2024/01/28 11:20:08;;;;;;;9.95;3.03;;;;;;;;;;5072382;28;20044;-78
2024/01/28 11:22:47;;;;;;;9.07;2.75;;;;;;;;;;5074322;28;20024;-78
2024/01/28 11:25:15;;;;;;;7.55;2.65;;;;;;;;;;5072218;28;20370;-77
2024/01/28 11:27:41;;;;;;;9.93;2.70;;;;;;;;;;5073040;28;20043;-78
2024/01/28 11:30:09;;;;;;;8.05;2.60;;;;;;;;;;5072139;28;20056;-78
2024/01/28 11:32:34;;;;;;;9.88;2.97;;;;;;;;;;5076361;28;20021;-78
2024/01/28 11:34:59;;;;;;;9.73;2.83;;;;;;;;;;5076927;28;20535;-78
2024/01/28 11:37:27;;;;;;;8.10;3.00;;;;;;;;;;5071330;28;20028;-78
2024/01/28 11:39:55;;;;;;;12.43;3.10;;;;;;;;;;5071925;28;20067;-78
2024/01/28 11:42:21;;;;;;;9.07;3.03;;;;;;;;;;5072312;28;20072;-78
2024/01/28 11:44:46;;;;;;;8.90;2.83;;;;;;;;;;5078014;28;20514;-78
2024/01/28 11:47:16;;;;;;;12.13;3.17;;;;;;;;;;5072365;28;20529;-78
2024/01/28 11:49:42;;;;;;;8.98;2.47;;;;;;;;;;5072076;28;20061;-78
2024/01/28 11:52:08;;;;;;;10.95;2.67;;;;;;;;;;5072483;28;20107;-78
2024/01/28 11:54:33;;;;;;;7.00;2.15;;;;;;;;;;5078918;28;20469;-78
2024/01/28 11:57:00;;;;;;;9.48;3.00;;;;;;;;;;5072385;28;20035;-77
2024/01/28 11:59:25;;;;;;;9.55;3.03;;;;;;;;;;5071559;28;20025;-78
2024/01/28 12:01:52;;;;;;;11.05;2.92;;;;;;;;;;5075510;28;20047;-78
2024/01/28 12:04:17;;;;;;;9.63;2.70;;;;;;;;;;5077008;28;20124;-78
2024/01/28 12:06:42;;;;;;;10.90;2.75;;;;;;;;;;5072129;28;20521;-78
2024/01/28 12:09:07;;;;;;;15.40;3.28;;;;;;;;;;5070769;28;20028;-78
2024/01/28 12:11:32;;;;;;;10.13;2.88;;;;;;;;;;5065012;28;20052;-78
2024/01/28 12:13:59;;;;;;;7.70;2.17;;;;;;;;;;5076150;28;20032;-78
2024/01/28 12:16:24;;;;;;;8.35;2.97;;;;;;;;;;5075130;28;20031;-78
2024/01/28 12:18:52;;;;;;;6.60;2.40;;;;;;;;;;5071993;28;20032;-78
2024/01/28 12:21:22;;;;;;;7.80;2.40;;;;;;;;;;5071369;28;20530;-78
2024/01/28 12:23:48;;;;;;;9.25;2.83;;;;;;;;;;5078486;28;20093;-78
2024/01/28 12:26:14;;;;;;;9.50;2.67;;;;;;;;;;5060379;28;20601;-78
2024/01/28 12:28:40;;;;;;;12.05;3.42;;;;;;;;;;5070330;28;20036;-78
2024/01/28 12:31:06;;;;;;;7.63;2.92;;;;;;;;;;5072853;28;20404;-78
2024/01/28 12:33:32;;;;;;;10.18;2.85;;;;;;;;;;5082615;28;20023;-78
2024/01/28 12:35:57;;;;;;;10.50;2.85;;;;;;;;;;5074163;28;20029;-78
2024/01/28 12:38:22;;;;;;;8.45;2.42;;;;;;;;;;5071468;28;20404;-78
2024/01/28 12:40:47;;;;;;;7.28;2.10;;;;;;;;;;5071109;28;20062;-78
2024/01/28 12:43:12;;;;;;;10.20;2.90;;;;;;;;;;5078988;28;20107;-77
2024/01/28 12:45:37;;;;;;;9.77;2.00;;;;;;;;;;5074140;28;20596;-78
2024/01/28 12:48:04;;;;;;;8.13;2.25;;;;;;;;;;5069904;28;20032;-77
2024/01/28 12:50:29;;;;;;;6.88;2.72;;;;;;;;;;5073899;28;20091;-77
2024/01/28 12:52:54;;;;;;;8.70;2.50;;;;;;;;;;5070945;28;20037;-78
2024/01/28 12:55:19;;;;;;;7.20;2.03;;;;;;;;;;5077885;28;20101;-78
2024/01/28 12:57:44;;;;;;;6.95;1.73;;;;;;;;;;5071512;28;20029;-78
2024/01/28 13:00:11;;;;;;;7.75;1.75;;;;;;;;;;5069112;28;20032;-78
2024/01/28 13:02:36;;;;;;;6.18;1.92;;;;;;;;;;5074906;28;20631;-78
2024/01/28 13:05:02;;;;;;;10.43;2.33;;;;;;;;;;5077772;28;20129;-78
2024/01/28 13:07:27;;;;;;;7.45;2.50;;;;;;;;;;5071724;28;20024;-78
2024/01/28 13:09:52;;;;;;;8.32;2.20;;;;;;;;;;5070481;28;20091;-78
2024/01/28 13:12:17;;;;;;;7.30;2.33;;;;;;;;;;5073066;28;20534;-78
2024/01/28 13:14:42;;;;;;;10.18;2.80;;;;;;;;;;5076349;28;20331;-78
2024/01/28 13:17:08;;;;;;;6.03;1.85;;;;;;;;;;5071038;28;20021;-78
2024/01/28 13:19:33;;;;;;;7.50;1.88;;;;;;;;;;5070518;28;20400;-78
2024/01/28 13:21:59;;;;;;;6.22;2.05;;;;;;;;;;5070568;28;20032;-78
2024/01/28 13:24:24;;;;;;;6.70;1.93;;;;;;;;;;5076013;28;20025;-78
2024/01/28 13:26:50;;;;;;;5.97;1.63;;;;;;;;;;5070576;28;20378;-78
2024/01/28 13:29:16;;;;;;;7.53;1.73;;;;;;;;;;5068882;28;20731;-78
2024/01/28 13:31:41;;;;;;;5.45;1.55;;;;;;;;;;5073121;28;20101;-78
2024/01/28 13:34:07;;;;;;;5.43;1.88;;;;;;;;;;5077838;28;20074;-78
2024/01/28 13:36:32;;;;;;;6.03;2.03;;;;;;;;;;5072106;28;20028;-78
2024/01/28 13:38:57;;;;;;;6.13;1.60;;;;;;;;;;5070333;28;20028;-78
2024/01/28 13:41:22;;;;;;;6.93;1.45;;;;;;;;;;5070461;28;20032;-78
2024/01/28 13:43:48;;;;;;;5.90;1.47;;;;;;;;;;5075218;28;20495;-78
2024/01/28 13:46:13;;;;;;;5.80;1.58;;;;;;;;;;5071159;28;20304;-78
2024/01/28 13:48:39;;;;;;;5.25;1.45;;;;;;;;;;5070618;28;20037;-78
2024/01/28 13:51:04;;;;;;;3.83;1.33;;;;;;;;;;5068657;28;20036;-78
2024/01/28 13:53:30;;;;;;;6.13;1.80;;;;;;;;;;5073776;28;20028;-78
2024/01/28 13:55:55;;;;;;;6.70;1.80;;;;;;;;;;5075405;28;20052;-78
2024/01/28 13:58:20;;;;;;;7.97;2.10;;;;;;;;;;5076530;28;20155;-78
2024/01/28 14:00:45;;;;;;;5.53;1.80;;;;;;;;;;5070090;28;20063;-78
2024/01/28 14:03:11;;;;;;;6.72;1.50;;;;;;;;;;5074471;28;20053;-78
2024/01/28 14:05:36;;;;;;;4.88;1.48;;;;;;;;;;5074911;28;20044;-78
2024/01/28 14:08:02;;;;;;;7.57;1.60;;;;;;;;;;5077835;28;20028;-78
2024/01/28 14:10:27;;;;;;;5.00;1.40;;;;;;;;;;5073120;28;20356;-78
2024/01/28 14:12:52;;;;;;;4.20;1.50;;;;;;;;;;5070590;28;20090;-78
2024/01/28 14:15:17;;;;;;;8.00;2.80;;;;;;;;;;5076121;28;20035;-78
2024/01/28 14:17:43;;;;;;;9.47;1.83;;;;;;;;;;5070754;28;20033;-78
2024/01/28 14:20:08;;;;;;;4.35;1.35;;;;;;;;;;5069905;28;20290;-78
2024/01/28 14:22:34;;;;;;;4.18;1.30;;;;;;;;;;5070588;28;20488;-78